createdAt,value
2017-06-11T00:00:39.218Z,58.37
2017-06-11T00:01:19.825Z,58.18
2017-06-11T00:02:00.408Z,58.18
2017-06-11T00:02:41.002Z,58.37
2017-06-11T00:03:21.599Z,58.37
2017-06-11T00:04:02.188Z,58.47
2017-06-11T00:04:42.766Z,58.67
2017-06-11T00:05:23.355Z,58.57
2017-06-11T00:06:03.947Z,58.76
2017-06-11T00:06:44.526Z,58.47
2017-06-11T00:07:25.117Z,58.57
2017-06-11T00:08:05.693Z,58.47
2017-06-11T00:08:46.274Z,58.95
2017-06-11T00:09:26.843Z,58.47
2017-06-11T00:10:07.435Z,58.47
2017-06-11T00:10:48.048Z,58.37
2017-06-11T00:11:28.663Z,58.57
2017-06-11T00:12:09.245Z,58.76
2017-06-11T00:12:49.857Z,58.86
2017-06-11T00:13:30.426Z,59.05
2017-06-11T00:14:11.018Z,59.15
2017-06-11T00:14:51.589Z,58.95
2017-06-11T00:15:32.194Z,59.05
2017-06-11T00:16:12.771Z,59.15
2017-06-11T00:16:53.369Z,58.86
2017-06-11T00:17:33.952Z,59.12
2017-06-11T00:18:14.550Z,59.44
2017-06-11T00:18:55.146Z,58.83
2017-06-11T00:19:35.735Z,59.69
2017-06-11T00:20:16.337Z,59.6
2017-06-11T00:20:56.949Z,59.6
2017-06-11T00:21:37.533Z,59.6
2017-06-11T00:22:18.120Z,59.79
2017-06-11T00:22:58.731Z,59.79
2017-06-11T00:23:39.322Z,59.41
2017-06-11T00:24:19.913Z,59.41
2017-06-11T00:25:00.504Z,59.79
2017-06-11T00:25:41.083Z,59.79
2017-06-11T00:26:21.676Z,59.31
2017-06-11T00:27:02.327Z,59.79
2017-06-11T00:27:42.903Z,59.79
2017-06-11T00:28:23.493Z,59.6
2017-06-11T00:29:04.103Z,59.79
2017-06-11T00:29:44.719Z,59.69
2017-06-11T00:30:25.305Z,60.08
2017-06-11T00:31:05.880Z,59.79
2017-06-11T00:31:46.458Z,59.89
2017-06-11T00:32:27.045Z,59.79
2017-06-11T00:33:07.644Z,60.27
2017-06-11T00:33:48.224Z,60.17
2017-06-11T00:34:28.801Z,60.56
2017-06-11T00:35:09.393Z,60.75
2017-06-11T00:35:49.987Z,60.85
2017-06-11T00:36:30.558Z,60.85
2017-06-11T00:37:11.189Z,60.85
2017-06-11T00:37:51.781Z,60.85
2017-06-11T00:38:32.363Z,60.46
2017-06-11T00:39:12.943Z,60.75
2017-06-11T00:39:53.539Z,60.85
2017-06-11T00:40:34.118Z,60.85
2017-06-11T00:41:14.708Z,60.56
2017-06-11T00:41:55.285Z,60.66
2017-06-11T00:42:35.875Z,61.04
2017-06-11T00:43:16.463Z,61.04
2017-06-11T00:43:57.047Z,61.04
2017-06-11T00:44:37.635Z,61.23
2017-06-11T00:45:18.248Z,60.94
2017-06-11T00:45:58.826Z,60.75
2017-06-11T00:46:39.417Z,61.33
2017-06-11T00:47:19.995Z,61.33
2017-06-11T00:48:00.585Z,61.14
2017-06-11T00:48:41.193Z,61.33
2017-06-11T00:49:21.774Z,61.52
2017-06-11T00:50:02.351Z,61.43
2017-06-11T00:50:42.930Z,61.61
2017-06-11T00:51:23.514Z,61.52
2017-06-11T00:52:04.089Z,61.43
2017-06-11T00:52:44.669Z,61.43
2017-06-11T00:53:25.246Z,61.23
2017-06-11T00:54:05.839Z,61.23
2017-06-11T00:54:46.424Z,61.33
2017-06-11T00:55:27.007Z,61.23
2017-06-11T00:56:07.593Z,61.87
2017-06-11T00:56:48.185Z,61.97
2017-06-11T00:57:28.775Z,62.07
2017-06-11T00:58:09.354Z,62.07
2017-06-11T00:58:49.947Z,62.07
2017-06-11T00:59:30.545Z,61.78
2017-06-11T01:00:11.129Z,61.97
2017-06-11T01:00:51.734Z,62.07
2017-06-11T01:01:32.324Z,61.78
2017-06-11T01:02:13.094Z,61.87
2017-06-11T01:02:53.687Z,61.97
2017-06-11T01:03:34.392Z,62.16
2017-06-11T01:04:15.066Z,62.35
2017-06-11T01:04:55.693Z,62.35
2017-06-11T01:05:36.271Z,62.74
2017-06-11T01:06:16.919Z,62.64
2017-06-11T01:06:57.547Z,62.45
2017-06-11T01:07:38.128Z,62.45
2017-06-11T01:08:18.712Z,63.02
2017-06-11T01:08:59.295Z,62.55
2017-06-11T01:09:39.893Z,62.45
2017-06-11T01:10:20.466Z,62.64
2017-06-11T01:11:01.051Z,63.02
2017-06-11T01:11:41.630Z,62.74
2017-06-11T01:12:22.212Z,62.55
2017-06-11T01:13:02.831Z,62.64
2017-06-11T01:13:43.423Z,62.74
2017-06-11T01:14:24.009Z,62.64
2017-06-11T01:15:04.600Z,62.74
2017-06-11T01:15:45.176Z,63.02
2017-06-11T01:16:25.775Z,62.74
2017-06-11T01:17:06.394Z,63.32
2017-06-11T01:17:46.973Z,62.74
2017-06-11T01:18:27.559Z,63.22
2017-06-11T01:19:08.168Z,63.22
2017-06-11T01:19:48.773Z,62.93
2017-06-11T01:20:29.358Z,63.22
2017-06-11T01:21:09.950Z,63.51
2017-06-11T01:21:50.562Z,63.79
2017-06-11T01:22:31.164Z,63.51
2017-06-11T01:23:11.753Z,63.6
2017-06-11T01:23:52.344Z,63.6
2017-06-11T01:24:32.914Z,63.6
2017-06-11T01:25:13.504Z,63.32
2017-06-11T01:25:54.080Z,63.41
2017-06-11T01:26:34.664Z,63.51
2017-06-11T01:27:15.264Z,63.51
2017-06-11T01:27:55.872Z,63.32
2017-06-11T01:28:36.473Z,63.22
2017-06-11T01:29:17.074Z,63.32
2017-06-11T01:29:57.665Z,62.84
2017-06-11T01:30:38.262Z,63.51
2017-06-11T01:31:18.845Z,63.22
2017-06-11T01:31:59.447Z,63.32
2017-06-11T01:32:40.058Z,63.22
2017-06-11T01:33:20.645Z,63.41
2017-06-11T01:34:01.230Z,62.93
2017-06-11T01:34:41.822Z,63.41
2017-06-11T01:35:22.413Z,63.7
2017-06-11T01:36:02.992Z,63.7
2017-06-11T01:36:43.591Z,63.22
2017-06-11T01:37:24.181Z,63.51
2017-06-11T01:38:04.757Z,63.6
2017-06-11T01:38:45.347Z,63.96
2017-06-11T01:39:25.966Z,63.7
2017-06-11T01:40:06.540Z,63.7
2017-06-11T01:40:47.120Z,63.79
2017-06-11T01:41:27.725Z,63.6
2017-06-11T01:42:08.327Z,63.41
2017-06-11T01:42:48.929Z,63.6
2017-06-11T01:43:29.521Z,63.57
2017-06-11T01:44:10.107Z,63.6
2017-06-11T01:44:50.713Z,63.6
2017-06-11T01:45:31.293Z,63.51
2017-06-11T01:46:11.889Z,63.76
2017-06-11T01:46:52.481Z,63.89
2017-06-11T01:47:33.065Z,63.79
2017-06-11T01:48:13.656Z,63.89
2017-06-11T01:48:54.238Z,63.79
2017-06-11T01:49:34.899Z,64.09
2017-06-11T01:50:15.534Z,63.89
2017-06-11T01:50:56.145Z,63.89
2017-06-11T01:51:36.753Z,64.09
2017-06-11T01:52:17.369Z,63.51
2017-06-11T01:52:57.957Z,63.76
2017-06-11T01:53:38.547Z,63.99
2017-06-11T01:54:19.141Z,63.99
2017-06-11T01:54:59.734Z,63.96
2017-06-11T01:55:40.322Z,63.86
2017-06-11T01:56:20.904Z,63.86
2017-06-11T01:57:01.487Z,64.15
2017-06-11T01:57:42.089Z,63.99
2017-06-11T01:58:22.664Z,64.15
2017-06-11T01:59:03.250Z,64.18
2017-06-11T01:59:43.850Z,64.15
2017-06-11T02:00:24.425Z,64.15
2017-06-11T02:01:05.103Z,64.53
2017-06-11T02:01:45.694Z,64.18
2017-06-11T02:02:26.371Z,63.96
2017-06-11T02:03:07.010Z,64.05
2017-06-11T02:03:47.680Z,64.18
2017-06-11T02:04:28.281Z,64.37
2017-06-11T02:05:08.871Z,64.05
2017-06-11T02:05:49.529Z,64.82
2017-06-11T02:06:30.097Z,64.53
2017-06-11T02:07:10.688Z,64.43
2017-06-11T02:07:51.288Z,64.43
2017-06-11T02:08:31.867Z,64.53
2017-06-11T02:09:12.465Z,64.34
2017-06-11T02:09:53.080Z,64.34
2017-06-11T02:10:33.666Z,64.43
2017-06-11T02:11:14.317Z,64.53
2017-06-11T02:11:54.901Z,64.43
2017-06-11T02:12:35.493Z,64.34
2017-06-11T02:13:16.080Z,64.43
2017-06-11T02:13:56.665Z,64.34
2017-06-11T02:14:37.243Z,64.25
2017-06-11T02:15:17.827Z,64.34
2017-06-11T02:15:58.447Z,64.43
2017-06-11T02:16:39.040Z,64.53
2017-06-11T02:17:19.632Z,64.53
2017-06-11T02:18:00.256Z,64.53
2017-06-11T02:18:40.895Z,64.53
2017-06-11T02:19:21.490Z,64.15
2017-06-11T02:20:02.062Z,64.05
2017-06-11T02:20:42.657Z,64.15
2017-06-11T02:21:23.229Z,63.96
2017-06-11T02:22:03.807Z,64.72
2017-06-11T02:22:44.390Z,64.63
2017-06-11T02:23:25.074Z,64.53
2017-06-11T02:24:05.657Z,64.53
2017-06-11T02:24:46.237Z,64.34
2017-06-11T02:25:26.819Z,64.53
2017-06-11T02:26:07.393Z,64.25
2017-06-11T02:26:48.019Z,64.25
2017-06-11T02:27:28.651Z,64.43
2017-06-11T02:28:09.242Z,64.43
2017-06-11T02:28:49.831Z,64.53
2017-06-11T02:29:30.415Z,64.43
2017-06-11T02:30:10.995Z,64.25
2017-06-11T02:30:51.590Z,64.63
2017-06-11T02:31:32.206Z,64.43
2017-06-11T02:32:12.775Z,64.34
2017-06-11T02:32:53.372Z,64.53
2017-06-11T02:33:33.958Z,64.43
2017-06-11T02:34:14.532Z,64.15
2017-06-11T02:34:55.108Z,64.5
2017-06-11T02:35:35.687Z,64.5
2017-06-11T02:36:16.266Z,64.79
2017-06-11T02:36:56.842Z,64.59
2017-06-11T02:37:37.418Z,64.34
2017-06-11T02:38:18.026Z,64.5
2017-06-11T02:38:58.603Z,64.5
2017-06-11T02:39:39.204Z,64.4
2017-06-11T02:40:19.841Z,64.89
2017-06-11T02:41:00.422Z,64.5
2017-06-11T02:41:40.992Z,64.5
2017-06-11T02:42:21.586Z,65.08
2017-06-11T02:43:02.170Z,64.89
2017-06-11T02:43:42.740Z,65.17
2017-06-11T02:44:23.323Z,65.17
2017-06-11T02:45:03.906Z,64.98
2017-06-11T02:45:44.482Z,64.98
2017-06-11T02:46:25.079Z,64.98
2017-06-11T02:47:05.671Z,64.89
2017-06-11T02:47:46.241Z,64.89
2017-06-11T02:48:26.836Z,64.98
2017-06-11T02:49:07.430Z,64.98
2017-06-11T02:49:48.010Z,65.08
2017-06-11T02:50:28.582Z,64.4
2017-06-11T02:51:09.172Z,64.89
2017-06-11T02:51:49.806Z,64.98
2017-06-11T02:52:30.394Z,64.89
2017-06-11T02:53:10.991Z,64.5
2017-06-11T02:53:51.581Z,65.08
2017-06-11T02:54:32.182Z,64.89
2017-06-11T02:55:12.783Z,65.17
2017-06-11T02:55:53.389Z,64.79
2017-06-11T02:56:33.985Z,64.89
2017-06-11T02:57:14.689Z,64.69
2017-06-11T02:57:55.244Z,65.08
2017-06-11T02:58:35.883Z,64.5
2017-06-11T02:59:16.466Z,64.5
2017-06-11T02:59:57.060Z,64.22
2017-06-11T03:00:37.659Z,64.59
2017-06-11T03:01:18.265Z,65.08
2017-06-11T03:01:58.870Z,64.69
2017-06-11T03:02:39.455Z,64.31
2017-06-11T03:03:20.046Z,64.5
2017-06-11T03:04:00.735Z,64.22
2017-06-11T03:04:41.388Z,64.5
2017-06-11T03:05:22.091Z,64.59
2017-06-11T03:06:02.665Z,64.59
2017-06-11T03:06:43.270Z,64.59
2017-06-11T03:07:23.921Z,64.79
2017-06-11T03:08:04.508Z,64.63
2017-06-11T03:08:45.324Z,64.43
2017-06-11T03:09:25.939Z,64.5
2017-06-11T03:10:06.549Z,64.22
2017-06-11T03:10:47.141Z,64.5
2017-06-11T03:11:27.726Z,64.69
2017-06-11T03:12:08.313Z,64.59
2017-06-11T03:12:48.968Z,64.53
2017-06-11T03:13:29.557Z,64.02
2017-06-11T03:14:10.150Z,64.69
2017-06-11T03:14:50.727Z,64.4
2017-06-11T03:15:31.326Z,64.12
2017-06-11T03:16:11.903Z,64.4
2017-06-11T03:16:52.474Z,64.59
2017-06-11T03:17:33.088Z,64.4
2017-06-11T03:18:13.678Z,64.5
2017-06-11T03:18:54.292Z,64.4
2017-06-11T03:19:34.891Z,64.4
2017-06-11T03:20:15.475Z,64.5
2017-06-11T03:20:56.065Z,64.4
2017-06-11T03:21:36.654Z,64.59
2017-06-11T03:22:17.248Z,64.59
2017-06-11T03:22:57.832Z,64.5
2017-06-11T03:23:38.419Z,64.4
2017-06-11T03:24:19.065Z,64.5
2017-06-11T03:24:59.710Z,64.89
2017-06-11T03:25:40.305Z,64.69
2017-06-11T03:26:20.925Z,64.59
2017-06-11T03:27:01.610Z,64.4
2017-06-11T03:27:42.305Z,64.4
2017-06-11T03:28:22.889Z,64.5
2017-06-11T03:29:03.478Z,64.4
2017-06-11T03:29:44.066Z,64.59
2017-06-11T03:30:24.704Z,64.5
2017-06-11T03:31:05.272Z,64.5
2017-06-11T03:31:45.921Z,64.69
2017-06-11T03:32:26.522Z,64.31
2017-06-11T03:33:07.118Z,64.4
2017-06-11T03:33:47.699Z,64.69
2017-06-11T03:34:28.291Z,64.79
2017-06-11T03:35:08.881Z,64.5
2017-06-11T03:35:49.465Z,64.12
2017-06-11T03:36:30.061Z,64.5
2017-06-11T03:37:10.642Z,64.5
2017-06-11T03:37:51.300Z,64.4
2017-06-11T03:38:31.890Z,64.98
2017-06-11T03:39:12.484Z,64.79
2017-06-11T03:39:53.065Z,64.5
2017-06-11T03:40:33.654Z,64.5
2017-06-11T03:41:14.234Z,64.22
2017-06-11T03:41:54.811Z,64.5
2017-06-11T03:42:35.399Z,64.12
2017-06-11T03:43:15.996Z,64.79
2017-06-11T03:43:56.628Z,64.31
2017-06-11T03:44:37.177Z,64.69
2017-06-11T03:45:17.760Z,64.4
2017-06-11T03:45:58.347Z,65.08
2017-06-11T03:46:38.963Z,64.79
2017-06-11T03:47:19.546Z,64.89
2017-06-11T03:48:00.175Z,64.79
2017-06-11T03:48:40.786Z,65.08
2017-06-11T03:49:21.350Z,65.08
2017-06-11T03:50:01.962Z,64.5
2017-06-11T03:50:42.555Z,64.98
2017-06-11T03:51:23.138Z,64.69
2017-06-11T03:52:03.716Z,64.79
2017-06-11T03:52:44.297Z,64.98
2017-06-11T03:53:24.894Z,64.4
2017-06-11T03:54:05.474Z,64.89
2017-06-11T03:54:46.059Z,64.98
2017-06-11T03:55:26.635Z,64.69
2017-06-11T03:56:07.232Z,65.17
2017-06-11T03:56:47.816Z,64.98
2017-06-11T03:57:28.401Z,64.89
2017-06-11T03:58:09.004Z,65.08
2017-06-11T03:58:49.943Z,64.89
2017-06-11T03:59:30.539Z,64.89
2017-06-11T04:00:11.144Z,65.17
2017-06-11T04:00:51.727Z,65.17
2017-06-11T04:01:32.315Z,65.27
2017-06-11T04:02:12.952Z,64.98
2017-06-11T04:02:53.553Z,65.17
2017-06-11T04:03:34.139Z,65.17
2017-06-11T04:04:14.730Z,65.17
2017-06-11T04:04:55.321Z,65.17
2017-06-11T04:05:35.911Z,64.79
2017-06-11T04:06:16.547Z,65.08
2017-06-11T04:06:57.128Z,64.98
2017-06-11T04:07:37.729Z,64.98
2017-06-11T04:08:18.321Z,64.98
2017-06-11T04:08:58.899Z,65.08
2017-06-11T04:09:39.529Z,65.36
2017-06-11T04:10:20.123Z,65.56
2017-06-11T04:11:00.731Z,65.56
2017-06-11T04:11:41.325Z,65.65
2017-06-11T04:12:21.931Z,65.94
2017-06-11T04:13:02.536Z,65.65
2017-06-11T04:13:43.178Z,65.94
2017-06-11T04:14:23.776Z,65.56
2017-06-11T04:15:04.361Z,65.65
2017-06-11T04:15:44.977Z,65.84
2017-06-11T04:16:25.549Z,65.36
2017-06-11T04:17:06.122Z,65.94
2017-06-11T04:17:46.750Z,65.94
2017-06-11T04:18:27.347Z,66.13
2017-06-11T04:19:07.939Z,66.23
2017-06-11T04:19:48.602Z,66.23
2017-06-11T04:20:29.225Z,66.03
2017-06-11T04:21:09.804Z,66.03
2017-06-11T04:21:50.409Z,65.94
2017-06-11T04:22:31.018Z,66.13
2017-06-11T04:23:11.607Z,66.13
2017-06-11T04:23:52.254Z,66.13
2017-06-11T04:24:32.856Z,65.84
2017-06-11T04:25:13.442Z,65.84
2017-06-11T04:25:54.044Z,65.75
2017-06-11T04:26:34.728Z,66.03
2017-06-11T04:27:15.291Z,65.75
2017-06-11T04:27:55.881Z,66.03
2017-06-11T04:28:36.464Z,66.03
2017-06-11T04:29:17.107Z,66.13
2017-06-11T04:29:57.700Z,65.94
2017-06-11T04:30:38.285Z,66.03
2017-06-11T04:31:18.867Z,65.65
2017-06-11T04:31:59.531Z,65.56
2017-06-11T04:32:40.111Z,66.13
2017-06-11T04:33:20.685Z,65.36
2017-06-11T04:34:01.272Z,65.27
2017-06-11T04:34:41.860Z,65.65
2017-06-11T04:35:22.562Z,65.65
2017-06-11T04:36:03.149Z,65.65
2017-06-11T04:36:43.722Z,65.56
2017-06-11T04:37:24.303Z,65.46
2017-06-11T04:38:04.885Z,65.17
2017-06-11T04:38:45.470Z,65.75
2017-06-11T04:39:26.050Z,65.46
2017-06-11T04:40:06.640Z,64.89
2017-06-11T04:40:47.225Z,64.5
2017-06-11T04:41:27.811Z,65.08
2017-06-11T04:42:08.382Z,64.79
2017-06-11T04:42:48.965Z,64.89
2017-06-11T04:43:29.575Z,65.17
2017-06-11T04:44:10.189Z,64.98
2017-06-11T04:44:50.769Z,64.5
2017-06-11T04:45:31.349Z,64.69
2017-06-11T04:46:11.943Z,64.98
2017-06-11T04:46:52.512Z,64.69
2017-06-11T04:47:33.113Z,64.12
2017-06-11T04:48:13.716Z,64.4
2017-06-11T04:48:54.318Z,64.31
2017-06-11T04:49:34.908Z,63.83
2017-06-11T04:50:15.498Z,63.54
2017-06-11T04:50:56.071Z,63.35
2017-06-11T04:51:36.661Z,63.28
2017-06-11T04:52:17.242Z,64.02
2017-06-11T04:52:57.823Z,63.35
2017-06-11T04:53:38.419Z,63.25
2017-06-11T04:54:18.991Z,63.96
2017-06-11T04:54:59.571Z,63.45
2017-06-11T04:55:40.161Z,63.54
2017-06-11T04:56:20.744Z,63.19
2017-06-11T04:57:01.324Z,63.48
2017-06-11T04:57:41.928Z,62.99
2017-06-11T04:58:22.507Z,63.57
2017-06-11T04:59:03.083Z,63.48
2017-06-11T04:59:43.678Z,63.57
2017-06-11T05:00:24.254Z,63.48
2017-06-11T05:01:04.911Z,63.57
2017-06-11T05:01:45.520Z,63.38
2017-06-11T05:02:26.128Z,63.28
2017-06-11T05:03:06.706Z,63.38
2017-06-11T05:03:47.285Z,63.28
2017-06-11T05:04:27.864Z,63.28
2017-06-11T05:05:08.452Z,63.48
2017-06-11T05:05:49.034Z,62.99
2017-06-11T05:06:29.606Z,62.61
2017-06-11T05:07:10.189Z,63.19
2017-06-11T05:07:50.785Z,63.19
2017-06-11T05:08:31.368Z,63.19
2017-06-11T05:09:12.027Z,62.52
2017-06-11T05:09:52.631Z,62.81
2017-06-11T05:10:33.191Z,62.52
2017-06-11T05:11:13.771Z,62.42
2017-06-11T05:11:54.376Z,63.19
2017-06-11T05:12:34.968Z,62.42
2017-06-11T05:13:15.540Z,63.19
2017-06-11T05:13:56.127Z,62.55
2017-06-11T05:14:36.736Z,62.74
2017-06-11T05:15:17.340Z,62.64
2017-06-11T05:15:57.930Z,62.07
2017-06-11T05:16:38.531Z,62.07
2017-06-11T05:17:19.148Z,62.26
2017-06-11T05:17:59.725Z,61.87
2017-06-11T05:18:40.353Z,62.07
2017-06-11T05:19:20.971Z,61.87
2017-06-11T05:20:01.561Z,61.68
2017-06-11T05:20:42.130Z,61.87
2017-06-11T05:21:22.726Z,61.91
2017-06-11T05:22:03.310Z,61.33
2017-06-11T05:22:43.899Z,60.94
2017-06-11T05:23:24.500Z,60.66
2017-06-11T05:24:05.077Z,60.46
2017-06-11T05:24:45.672Z,59.69
2017-06-11T05:25:26.260Z,59.41
2017-06-11T05:26:06.850Z,58.83
2017-06-11T05:26:47.448Z,58.64
2017-06-11T05:27:28.300Z,58.28
2017-06-11T05:28:08.928Z,58.28
2017-06-11T05:28:49.496Z,57.6
2017-06-11T05:29:30.080Z,57.99
2017-06-11T05:30:10.675Z,57.35
2017-06-11T05:30:51.282Z,57.03
2017-06-11T05:31:31.888Z,57.45
2017-06-11T05:32:12.498Z,57.35
2017-06-11T05:32:53.131Z,56.58
2017-06-11T05:33:33.711Z,56.48
2017-06-11T05:34:14.301Z,55.45
2017-06-11T05:34:54.907Z,55.35
2017-06-11T05:35:35.497Z,55.35
2017-06-11T05:36:16.095Z,54.97
2017-06-11T05:36:56.677Z,54.42
2017-06-11T05:37:37.295Z,54.42
2017-06-11T05:38:17.887Z,53.84
2017-06-11T05:38:58.482Z,53.74
2017-06-11T05:39:39.203Z,53.58
2017-06-11T05:40:20.448Z,53.48
2017-06-11T05:41:01.045Z,53.29
2017-06-11T05:41:41.635Z,52.81
2017-06-11T05:42:22.232Z,52.16
2017-06-11T05:43:03.044Z,51.58
2017-06-11T05:43:43.659Z,51.29
2017-06-11T05:44:24.267Z,50.62
2017-06-11T05:45:04.855Z,50.64
2017-06-11T05:45:45.469Z,50.06
2017-06-11T05:46:26.070Z,50.06
2017-06-11T05:47:07.635Z,49.29
2017-06-11T05:47:48.239Z,49
2017-06-11T05:48:29.245Z,48.44
2017-06-11T05:49:14.143Z,48.25
2017-06-11T05:49:54.761Z,47.87
2017-06-11T05:50:36.649Z,48.16
2017-06-11T05:51:17.662Z,47.19
2017-06-11T05:52:00.889Z,46.71
2017-06-11T05:52:41.542Z,46.71
2017-06-11T05:53:22.276Z,46.54
2017-06-11T05:54:03.770Z,46.54
2017-06-11T05:54:44.377Z,46.92
2017-06-11T05:55:24.975Z,46.25
2017-06-11T05:56:05.584Z,46.06
2017-06-11T05:56:46.279Z,46.06
2017-06-11T05:57:26.900Z,45.48
2017-06-11T05:58:08.532Z,45.48
2017-06-11T05:58:49.156Z,45.11
2017-06-11T05:59:29.759Z,45.31
2017-06-11T06:00:10.380Z,44.53
2017-06-11T06:00:50.996Z,44.63
2017-06-11T06:01:31.620Z,44.82
2017-06-11T06:02:12.240Z,44.82
2017-06-11T06:02:53.003Z,44.36
2017-06-11T06:03:33.608Z,44.17
2017-06-11T06:04:14.218Z,42.62
2017-06-11T06:04:55.347Z,42.82
2017-06-11T06:05:36.072Z,43.88
2017-06-11T06:06:16.692Z,44.17
2017-06-11T06:06:57.305Z,44.19
2017-06-11T06:07:37.933Z,42.74
2017-06-11T06:08:18.555Z,42.93
2017-06-11T06:08:59.327Z,43.32
2017-06-11T06:09:40.177Z,44.09
2017-06-11T06:10:20.827Z,43.61
2017-06-11T06:11:01.479Z,43.63
2017-06-11T06:11:42.270Z,42.28
2017-06-11T06:12:22.894Z,42.76
2017-06-11T06:13:03.602Z,42.86
2017-06-11T06:13:44.193Z,42.76
2017-06-11T06:14:24.846Z,42.66
2017-06-11T06:15:05.475Z,42.57
2017-06-11T06:15:46.155Z,41.33
2017-06-11T06:16:26.784Z,40.84
2017-06-11T06:17:07.461Z,40.94
2017-06-11T06:17:48.103Z,40.36
2017-06-11T06:18:28.734Z,40.36
2017-06-11T06:19:09.466Z,40.65
2017-06-11T06:19:49.995Z,40.36
2017-06-11T06:20:30.621Z,39.69
2017-06-11T06:21:11.255Z,40.07
2017-06-11T06:21:51.871Z,39.97
2017-06-11T06:22:32.489Z,40.17
2017-06-11T06:23:13.123Z,40.46
2017-06-11T06:23:53.758Z,39.41
2017-06-11T06:24:34.373Z,39.69
2017-06-11T06:25:15.010Z,39.32
2017-06-11T06:25:55.631Z,40
2017-06-11T06:26:36.282Z,39.41
2017-06-11T06:27:16.926Z,39.12
2017-06-11T06:27:57.581Z,39.7
2017-06-11T06:28:38.208Z,39.8
2017-06-11T06:29:18.881Z,38.54
2017-06-11T06:29:59.468Z,38.15
2017-06-11T06:30:40.129Z,38.73
2017-06-11T06:31:20.767Z,38.54
2017-06-11T06:32:01.384Z,38.25
2017-06-11T06:32:42.010Z,38.64
2017-06-11T06:33:22.791Z,38.54
2017-06-11T06:34:03.426Z,38.56
2017-06-11T06:34:44.108Z,38.66
2017-06-11T06:35:24.710Z,38.54
2017-06-11T06:36:05.357Z,38.06
2017-06-11T06:36:45.985Z,38.17
2017-06-11T06:37:26.582Z,38.07
2017-06-11T06:38:07.162Z,38.27
2017-06-11T06:38:47.761Z,38.17
2017-06-11T06:39:28.351Z,38.17
2017-06-11T06:40:08.938Z,38.07
2017-06-11T06:40:49.533Z,38.37
2017-06-11T06:41:30.120Z,37.98
2017-06-11T06:42:10.712Z,37.59
2017-06-11T06:42:51.309Z,38.17
2017-06-11T06:43:31.899Z,37.69
2017-06-11T06:44:12.479Z,37.49
2017-06-11T06:44:53.078Z,37.79
2017-06-11T06:45:33.692Z,37.4
2017-06-11T06:46:14.293Z,37.61
2017-06-11T06:46:54.916Z,37.61
2017-06-11T06:47:35.514Z,36.74
2017-06-11T06:48:16.191Z,37.71
2017-06-11T06:48:56.806Z,37.41
2017-06-11T06:49:37.399Z,36.74
2017-06-11T06:50:17.994Z,37.23
2017-06-11T06:50:58.612Z,37.71
2017-06-11T06:51:39.196Z,37.13
2017-06-11T06:52:19.791Z,37.41
2017-06-11T06:53:00.429Z,37.61
2017-06-11T06:53:41.016Z,37.41
2017-06-11T06:54:21.652Z,36.93
2017-06-11T06:55:02.251Z,37.61
2017-06-11T06:55:42.855Z,37.61
2017-06-11T06:56:23.439Z,37.61
2017-06-11T06:57:04.055Z,37.51
2017-06-11T06:57:44.650Z,37.03
2017-06-11T06:58:25.260Z,37.23
2017-06-11T06:59:05.883Z,36.83
2017-06-11T06:59:46.493Z,36.74
2017-06-11T07:00:27.084Z,36.54
2017-06-11T07:01:07.679Z,36.46
2017-06-11T07:01:48.281Z,36.16
2017-06-11T07:02:28.896Z,36.74
2017-06-11T07:03:09.491Z,36.25
2017-06-11T07:03:50.096Z,36.08
2017-06-11T07:04:30.765Z,36.27
2017-06-11T07:05:11.411Z,36.54
2017-06-11T07:05:51.998Z,37.53
2017-06-11T07:06:32.606Z,38.21
2017-06-11T07:07:13.391Z,37.43
2017-06-11T07:07:53.986Z,36.56
2017-06-11T07:08:34.602Z,35.78
2017-06-11T07:09:15.196Z,35.69
2017-06-11T07:09:55.860Z,35.41
2017-06-11T07:10:36.456Z,37.65
2017-06-11T07:11:17.055Z,38.13
2017-06-11T07:11:57.656Z,37.07
2017-06-11T07:12:38.242Z,35.8
2017-06-11T07:13:18.836Z,35.32
2017-06-11T07:13:59.423Z,35.8
2017-06-11T07:14:40.044Z,36
2017-06-11T07:15:20.833Z,35.03
2017-06-11T07:16:01.440Z,34.64
2017-06-11T07:16:42.029Z,35.13
2017-06-11T07:17:22.636Z,34.93
2017-06-11T07:18:03.247Z,34.93
2017-06-11T07:18:43.882Z,34.35
2017-06-11T07:19:24.479Z,34.64
2017-06-11T07:20:05.077Z,35.03
2017-06-11T07:20:45.688Z,34.66
2017-06-11T07:21:26.300Z,34.17
2017-06-11T07:22:06.911Z,33.88
2017-06-11T07:22:47.547Z,34.36
2017-06-11T07:23:28.154Z,34.27
2017-06-11T07:24:08.791Z,33.49
2017-06-11T07:24:49.388Z,33.98
2017-06-11T07:25:29.994Z,33.39
2017-06-11T07:26:10.606Z,33.39
2017-06-11T07:26:51.224Z,33.49
2017-06-11T07:27:31.849Z,33.98
2017-06-11T07:28:12.442Z,33.98
2017-06-11T07:28:53.036Z,34.08
2017-06-11T07:29:33.642Z,36.5
2017-06-11T07:30:14.241Z,34.66
2017-06-11T07:30:54.813Z,34.08
2017-06-11T07:31:35.400Z,33.88
2017-06-11T07:32:16.014Z,33.39
2017-06-11T07:32:56.612Z,33.39
2017-06-11T07:33:37.210Z,33.88
2017-06-11T07:34:17.814Z,33.59
2017-06-11T07:34:58.422Z,33.7
2017-06-11T07:35:39.042Z,34.28
2017-06-11T07:36:19.629Z,34.19
2017-06-11T07:37:00.214Z,35.35
2017-06-11T07:37:40.813Z,34.87
2017-06-11T07:38:21.406Z,33.12
2017-06-11T07:39:02.013Z,32.92
2017-06-11T07:39:42.612Z,32.82
2017-06-11T07:40:23.253Z,33.12
2017-06-11T07:41:03.854Z,33.12
2017-06-11T07:41:44.552Z,33.12
2017-06-11T07:42:25.165Z,33.22
2017-06-11T07:43:05.757Z,32.92
2017-06-11T07:43:46.368Z,32.92
2017-06-11T07:44:26.970Z,32.54
2017-06-11T07:45:07.569Z,32.64
2017-06-11T07:45:48.165Z,32.92
2017-06-11T07:46:28.798Z,33.9
2017-06-11T07:47:09.404Z,34.38
2017-06-11T07:47:50.003Z,35.45
2017-06-11T07:48:30.589Z,35.06
2017-06-11T07:49:11.186Z,34.88
2017-06-11T07:49:51.797Z,35.47
2017-06-11T07:50:32.411Z,36.15
2017-06-11T07:51:12.997Z,35.96
2017-06-11T07:51:53.596Z,35.76
2017-06-11T07:52:34.186Z,33.54
2017-06-11T07:53:14.855Z,33.43
2017-06-11T07:53:55.455Z,32.55
2017-06-11T07:54:36.103Z,31.97
2017-06-11T07:55:16.662Z,32.47
2017-06-11T07:55:57.283Z,32.47
2017-06-11T07:56:37.886Z,34.4
2017-06-11T07:57:18.474Z,34.12
2017-06-11T07:57:59.081Z,32.55
2017-06-11T07:58:39.725Z,31.4
2017-06-11T07:59:20.324Z,32.18
2017-06-11T08:00:00.964Z,33.44
2017-06-11T08:00:41.555Z,31.88
2017-06-11T08:01:22.149Z,30.82
2017-06-11T08:02:02.731Z,32.47
2017-06-11T08:02:43.332Z,32.08
2017-06-11T08:03:24.057Z,30.52
2017-06-11T08:04:04.655Z,31.11
2017-06-11T08:04:45.227Z,30.72
2017-06-11T08:05:25.860Z,32.18
2017-06-11T08:06:06.485Z,33.25
2017-06-11T08:06:47.074Z,30.82
2017-06-11T08:07:27.696Z,30.52
2017-06-11T08:08:08.315Z,30.72
2017-06-11T08:08:48.912Z,31.6
2017-06-11T08:09:29.553Z,31.79
2017-06-11T08:10:10.143Z,31.98
2017-06-11T08:10:50.736Z,32.76
2017-06-11T08:11:31.338Z,32.86
2017-06-11T08:12:11.961Z,32.67
2017-06-11T08:12:52.608Z,32.57
2017-06-11T08:13:33.180Z,30.72
2017-06-11T08:14:13.798Z,31.01
2017-06-11T08:14:54.396Z,33.17
2017-06-11T08:15:35.027Z,31.79
2017-06-11T08:16:15.634Z,31.6
2017-06-11T08:16:56.258Z,31.6
2017-06-11T08:17:36.839Z,29.96
2017-06-11T08:18:17.434Z,30.82
2017-06-11T08:18:58.050Z,30.83
2017-06-11T08:19:38.645Z,30.62
2017-06-11T08:20:19.245Z,30.62
2017-06-11T08:20:59.842Z,29.94
2017-06-11T08:21:40.432Z,30.52
2017-06-11T08:22:21.065Z,30.04
2017-06-11T08:23:01.626Z,29.65
2017-06-11T08:23:42.234Z,30.72
2017-06-11T08:24:22.833Z,32.57
2017-06-11T08:25:03.432Z,32.47
2017-06-11T08:25:44.041Z,32.37
2017-06-11T08:26:24.637Z,33.15
2017-06-11T08:27:05.233Z,33.15
2017-06-11T08:27:45.863Z,31.51
2017-06-11T08:28:26.433Z,30.54
2017-06-11T08:29:07.035Z,30.54
2017-06-11T08:29:47.647Z,29.26
2017-06-11T08:30:28.211Z,29.26
2017-06-11T08:31:08.802Z,29.18
2017-06-11T08:31:49.395Z,29.26
2017-06-11T08:32:30.014Z,29.75
2017-06-11T08:33:10.624Z,29.85
2017-06-11T08:33:51.213Z,30.14
2017-06-11T08:34:31.815Z,30.14
2017-06-11T08:35:12.451Z,29.36
2017-06-11T08:35:53.091Z,29.94
2017-06-11T08:36:33.708Z,30.04
2017-06-11T08:37:14.313Z,29.75
2017-06-11T08:37:54.939Z,29.75
2017-06-11T08:38:35.532Z,30.43
2017-06-11T08:39:16.128Z,29.85
2017-06-11T08:39:56.750Z,30.22
2017-06-11T08:40:37.377Z,31.87
2017-06-11T08:41:17.986Z,32.45
2017-06-11T08:41:58.599Z,32.07
2017-06-11T08:42:39.213Z,31
2017-06-11T08:43:19.793Z,30.9
2017-06-11T08:44:00.396Z,31.1
2017-06-11T08:44:40.993Z,31.48
2017-06-11T08:45:21.577Z,31.68